createdAt,value
2022-12-19T00:01:27.542Z,98998.97
2022-12-19T00:04:02.368Z,98997.75
2022-12-19T00:06:37.993Z,98988.75
2022-12-19T00:09:14.466Z,98956.19
2022-12-19T00:11:43.410Z,98944.75
2022-12-19T00:14:13.081Z,98953.97
2022-12-19T00:16:41.610Z,98981.38
2022-12-19T00:19:13.478Z,99002.88
2022-12-19T00:21:42.136Z,98998.97
2022-12-19T00:24:21.171Z,98983.22
2022-12-19T00:26:51.155Z,98981.38
2022-12-19T00:29:19.818Z,98990.00
2022-12-19T00:31:48.670Z,99000.00
2022-12-19T00:34:18.673Z,99008.59
2022-12-19T00:36:47.302Z,99015.16
2022-12-19T00:39:15.798Z,99016.78
2022-12-19T00:41:44.407Z,99016.97
2022-12-19T00:44:17.976Z,99031.53
2022-12-19T00:46:52.446Z,99038.69
2022-12-19T00:49:23.162Z,99029.88
2022-12-19T00:51:51.737Z,99023.34
2022-12-19T00:54:20.343Z,99015.78
2022-12-19T00:56:49.529Z,99012.06
2022-12-19T00:59:18.161Z,99010.44
2022-12-19T01:01:58.499Z,98995.91
2022-12-19T01:04:29.784Z,98996.09
2022-12-19T01:07:03.001Z,98979.13
2022-12-19T01:09:37.428Z,98972.16
2022-12-19T01:12:25.692Z,98955.41
2022-12-19T01:15:04.662Z,98947.44
2022-12-19T01:17:39.133Z,98945.56
2022-12-19T01:20:29.457Z,98941.06
2022-12-19T01:23:00.177Z,98931.25
2022-12-19T01:25:29.443Z,98933.09
2022-12-19T01:27:58.626Z,98928.19
2022-12-19T01:30:29.068Z,98938.63
2022-12-19T01:33:00.968Z,98943.72
2022-12-19T01:35:30.937Z,98943.72
2022-12-19T01:38:07.935Z,98957.03
2022-12-19T01:40:37.804Z,98954.56
2022-12-19T01:43:07.205Z,98951.72
2022-12-19T01:45:42.121Z,98966.63
2022-12-19T01:48:20.314Z,98970.94
2022-12-19T01:51:01.222Z,98966.41
2022-12-19T01:53:48.387Z,98962.13
2022-12-19T01:56:23.762Z,98951.28
2022-12-19T01:59:06.014Z,98958.69
2022-12-19T02:01:51.510Z,98949.06
2022-12-19T02:04:31.907Z,98929.38
2022-12-19T02:07:15.081Z,98926.31
2022-12-19T02:09:47.436Z,98918.16
2022-12-19T02:12:28.201Z,98906.28
2022-12-19T02:15:03.173Z,98904.44
2022-12-19T02:17:48.265Z,98938.00
2022-12-19T02:21:15.908Z,98921.19
2022-12-19T02:24:42.963Z,98922.44
2022-12-19T02:27:59.204Z,98939.81
2022-12-19T02:30:53.075Z,98942.53
2022-12-19T02:33:34.133Z,98924.25
2022-12-19T02:36:13.348Z,98930.78
2022-12-19T02:38:51.653Z,98925.44
2022-12-19T02:41:28.229Z,98924.03
2022-12-19T02:44:02.747Z,98915.00
2022-12-19T02:46:34.558Z,98925.66
2022-12-19T02:49:03.872Z,98934.25
2022-12-19T02:51:32.567Z,98930.97
2022-12-19T02:54:01.402Z,98959.81
2022-12-19T02:56:46.783Z,98953.25
2022-12-19T02:59:47.228Z,98929.91
2022-12-19T03:02:37.264Z,98928.28
2022-12-19T03:05:16.014Z,98929.72
2022-12-19T03:07:56.994Z,98931.97
2022-12-19T03:10:35.746Z,98944.44
2022-12-19T03:13:13.887Z,98949.16
2022-12-19T03:15:43.970Z,98955.13
2022-12-19T03:18:14.870Z,98950.00
2022-12-19T03:20:50.841Z,98951.81
2022-12-19T03:23:20.557Z,98955.72
2022-12-19T03:25:56.164Z,98952.84
2022-12-19T03:28:31.331Z,98965.31
2022-12-19T03:31:01.883Z,98969.59
2022-12-19T03:33:35.039Z,98983.13
2022-12-19T03:36:10.382Z,98985.56
2022-12-19T03:38:46.577Z,98989.91
2022-12-19T03:41:40.149Z,98989.25
2022-12-19T03:44:11.520Z,98983.34
2022-12-19T03:46:46.077Z,98970.63
2022-12-19T03:49:16.668Z,98959.56
2022-12-19T03:51:59.394Z,98961.69
2022-12-19T03:54:33.405Z,98950.81
2022-12-19T03:57:10.431Z,98955.13
2022-12-19T03:59:46.257Z,98954.88
2022-12-19T04:02:21.216Z,98944.50
2022-12-19T04:04:57.381Z,98948.59
2022-12-19T04:07:26.593Z,98961.91
2022-12-19T04:09:59.186Z,98956.34
2022-12-19T04:12:37.722Z,98942.84
2022-12-19T04:15:08.755Z,98939.53
2022-12-19T04:17:47.764Z,98936.44
2022-12-19T04:20:19.837Z,98930.25
2022-12-19T04:22:57.803Z,98915.38
2022-12-19T04:25:32.216Z,98936.47
2022-12-19T04:28:14.259Z,99002.41
2022-12-19T04:30:45.123Z,98975.34
2022-12-19T04:33:13.813Z,99026.56
2022-12-19T04:35:43.951Z,98992.72
2022-12-19T04:38:15.055Z,98980.41
2022-12-19T04:40:43.623Z,99003.19
2022-12-19T04:43:12.251Z,99015.44
2022-12-19T04:45:43.106Z,98999.44
2022-12-19T04:48:11.925Z,98988.38
2022-12-19T04:50:40.548Z,99003.63
2022-12-19T04:53:10.700Z,98990.44
2022-12-19T04:55:41.300Z,99029.41
2022-12-19T04:58:09.957Z,99012.78
2022-12-19T05:00:38.551Z,99024.09
2022-12-19T05:03:07.277Z,98995.34
2022-12-19T05:05:35.878Z,98974.31
2022-12-19T05:08:04.489Z,98949.94
2022-12-19T05:10:34.567Z,98954.28
2022-12-19T05:13:03.140Z,98959.94
2022-12-19T05:15:31.701Z,98928.38
2022-12-19T05:18:00.320Z,98938.28
2022-12-19T05:20:28.934Z,98954.63
2022-12-19T05:22:57.528Z,98940.28
2022-12-19T05:25:26.167Z,98948.44
2022-12-19T05:27:56.136Z,98936.78
2022-12-19T05:30:24.908Z,98935.59
2022-12-19T05:32:53.596Z,98936.22
2022-12-19T05:35:22.261Z,98931.50
2022-12-19T05:37:50.967Z,98896.53
2022-12-19T05:40:19.810Z,98891.03
2022-12-19T05:42:48.421Z,98856.97
2022-12-19T05:45:18.945Z,98844.22
2022-12-19T05:47:47.870Z,98830.31
2022-12-19T05:50:18.226Z,98852.53
2022-12-19T05:52:53.135Z,98843.72
2022-12-19T05:55:21.750Z,98881.75
2022-12-19T05:57:50.371Z,98944.03
2022-12-19T06:00:21.328Z,98933.34
2022-12-19T06:02:50.197Z,98904.22
2022-12-19T06:05:18.937Z,98897.22
2022-12-19T06:07:48.685Z,98914.84
2022-12-19T06:10:17.375Z,98929.97
2022-12-19T06:12:45.932Z,98951.47
2022-12-19T06:15:14.588Z,98974.63
2022-12-19T06:17:44.525Z,98994.47
2022-12-19T06:20:13.399Z,98999.97
2022-12-19T06:22:42.124Z,98989.94
2022-12-19T06:25:13.674Z,98989.69
2022-12-19T06:27:42.333Z,98985.41
2022-12-19T06:30:12.407Z,98987.00
2022-12-19T06:32:41.163Z,98993.16
2022-12-19T06:35:11.569Z,98991.16
2022-12-19T06:37:40.173Z,98988.06
2022-12-19T06:40:31.905Z,98966.34
2022-12-19T06:42:59.400Z,98971.94
2022-12-19T06:45:27.979Z,98968.25
2022-12-19T06:47:59.011Z,98962.34
2022-12-19T06:50:29.776Z,98965.56
2022-12-19T06:52:59.283Z,98948.38
2022-12-19T06:55:28.434Z,98995.28
2022-12-19T06:57:57.340Z,98996.28
2022-12-19T07:00:26.232Z,99008.16
2022-12-19T07:02:56.810Z,98996.28
2022-12-19T07:05:25.775Z,99003.84
2022-12-19T07:07:55.618Z,98995.28
2022-12-19T07:10:24.584Z,98991.97
2022-12-19T07:12:53.190Z,98995.69
2022-12-19T07:15:21.748Z,98986.22
2022-12-19T07:17:50.518Z,98979.94
2022-12-19T07:20:20.737Z,98963.91
2022-12-19T07:22:50.582Z,98954.03
2022-12-19T07:25:20.973Z,98953.78
2022-12-19T07:27:49.934Z,98949.31
2022-12-19T07:30:19.061Z,98950.72
2022-12-19T07:32:47.649Z,98952.31
2022-12-19T07:35:16.571Z,98948.13
2022-12-19T07:37:45.389Z,98953.22
2022-12-19T07:40:15.526Z,98943.16
2022-12-19T07:42:45.871Z,98950.28
2022-12-19T07:45:14.557Z,98962.88
2022-12-19T07:47:43.212Z,98952.53
2022-12-19T07:50:12.531Z,98948.88
2022-12-19T07:52:43.725Z,98962.19
2022-12-19T07:55:12.672Z,98969.06
2022-12-19T07:57:41.333Z,98974.59
2022-12-19T08:00:13.483Z,98974.34
2022-12-19T08:02:42.490Z,98990.41
2022-12-19T08:05:12.109Z,98996.44
2022-12-19T08:07:40.805Z,99004.13
2022-12-19T08:10:12.473Z,98995.91
2022-12-19T08:12:41.476Z,98990.34
2022-12-19T08:15:12.347Z,99004.91
2022-12-19T08:17:41.010Z,98997.13
2022-12-19T08:20:12.431Z,98991.75
2022-12-19T08:22:41.242Z,98977.88
2022-12-19T08:25:10.985Z,98982.91
2022-12-19T08:27:39.997Z,98993.69
2022-12-19T08:30:13.990Z,98979.69
2022-12-19T08:32:42.921Z,98978.00
2022-12-19T08:35:11.939Z,98965.91
2022-12-19T08:37:40.514Z,98964.72
2022-12-19T08:40:10.941Z,98962.88
2022-12-19T08:42:39.656Z,98962.28
2022-12-19T08:45:09.889Z,98950.72
2022-12-19T08:47:39.792Z,98952.47
2022-12-19T08:50:09.607Z,98952.47
2022-12-19T08:52:38.587Z,98954.41
2022-12-19T08:55:10.102Z,98947.06
2022-12-19T08:57:38.957Z,98950.59
2022-12-19T09:00:09.577Z,98950.97
2022-12-19T09:02:40.439Z,98947.38
2022-12-19T09:06:00.974Z,98947.44
2022-12-19T09:07:58.828Z,98941.47
2022-12-19T09:10:27.428Z,98936.97
2022-12-19T09:12:58.024Z,98930.78
2022-12-19T09:15:26.848Z,98941.09
2022-12-19T09:17:57.114Z,98938.66
2022-12-19T09:20:25.859Z,98938.25
2022-12-19T09:22:55.093Z,98930.69
2022-12-19T09:25:23.881Z,98932.97
2022-12-19T09:28:26.368Z,98922.16
2022-12-19T09:30:41.535Z,98912.34
2022-12-19T09:33:12.081Z,98911.81
2022-12-19T09:35:40.663Z,98914.28
2022-12-19T09:38:09.351Z,98903.31
2022-12-19T09:41:04.127Z,98897.38
2022-12-19T09:43:51.923Z,98905.13
2022-12-19T09:46:26.168Z,98898.81
2022-12-19T09:48:58.544Z,98892.31
2022-12-19T09:51:36.645Z,98889.91
2022-12-19T09:54:15.674Z,98895.44
2022-12-19T09:56:46.911Z,98888.22
2022-12-19T09:59:39.833Z,98884.28
2022-12-19T10:02:33.308Z,98889.84
2022-12-19T10:05:37.492Z,98890.31
2022-12-19T10:08:18.668Z,98893.94
2022-12-19T10:12:47.458Z,98889.28
2022-12-19T10:14:22.323Z,98872.38
2022-12-19T10:17:24.261Z,98870.66
2022-12-19T10:20:17.177Z,98870.06
2022-12-19T10:23:02.491Z,98889.56
2022-12-19T10:25:48.513Z,98883.09
2022-12-19T10:28:37.597Z,98891.59
2022-12-19T10:31:22.391Z,98891.97
2022-12-19T10:34:03.627Z,98897.56
2022-12-19T10:37:12.867Z,98885.06
2022-12-19T10:39:38.501Z,98897.34
2022-12-19T10:42:18.400Z,98900.06
2022-12-19T10:44:50.218Z,98897.13
2022-12-19T10:47:19.364Z,98910.50
2022-12-19T10:49:49.303Z,98900.31
2022-12-19T10:52:49.067Z,98896.03
2022-12-19T10:55:39.282Z,98909.66
2022-12-19T10:58:23.689Z,98904.03
2022-12-19T11:01:11.564Z,98900.59
2022-12-19T11:03:42.976Z,98887.84
2022-12-19T11:06:51.092Z,98882.56
2022-12-19T11:09:27.651Z,98872.31
2022-12-19T11:16:35.983Z,98874.66
2022-12-19T11:19:36.355Z,98865.44
2022-12-19T11:24:46.221Z,98858.88
2022-12-19T11:29:34.344Z,98847.25
2022-12-19T11:29:35.024Z,98846.66
2022-12-19T11:30:44.126Z,98840.97
2022-12-19T11:32:43.513Z,98820.47
2022-12-19T11:35:24.210Z,98814.94
2022-12-19T11:37:58.308Z,98812.97
2022-12-19T11:40:40.431Z,98818.91
2022-12-19T11:46:35.830Z,98812.47
2022-12-19T11:49:17.084Z,98806.78
2022-12-19T11:51:56.084Z,98789.00
2022-12-19T11:54:33.207Z,98793.88
2022-12-19T11:57:02.837Z,98797.19
2022-12-19T11:59:36.523Z,98790.94
2022-12-19T12:02:52.273Z,98793.47
2022-12-19T12:05:47.019Z,98788.34
2022-12-19T12:11:15.576Z,98795.31
2022-12-19T12:19:19.223Z,98802.50
2022-12-19T12:28:52.462Z,98809.88
2022-12-19T12:31:07.544Z,98803.72
2022-12-19T12:31:17.155Z,98800.13
2022-12-19T12:31:41.880Z,98777.75
2022-12-19T12:31:53.298Z,98794.34
2022-12-19T12:35:08.268Z,98791.09
2022-12-19T12:35:40.777Z,98774.28
2022-12-19T12:40:05.962Z,98757.66
2022-12-19T12:42:51.630Z,98769.66
2022-12-19T12:45:25.163Z,98777.97
2022-12-19T12:47:55.630Z,98772.19
2022-12-19T12:50:27.547Z,98754.19
2022-12-19T12:53:02.726Z,98742.84
2022-12-19T12:55:35.574Z,98748.00
2022-12-19T12:58:06.130Z,98764.19
2022-12-19T13:00:38.188Z,98757.75
2022-12-19T13:03:16.896Z,98739.44
2022-12-19T13:06:04.452Z,98746.53
2022-12-19T13:08:38.763Z,98764.19
2022-12-19T13:11:34.046Z,98764.19
2022-12-19T13:14:02.615Z,98752.66
2022-12-19T13:16:53.458Z,98750.13
2022-12-19T13:19:28.771Z,98738.03
2022-12-19T13:22:19.528Z,98728.56
2022-12-19T13:24:51.621Z,98729.78
2022-12-19T13:27:49.311Z,98733.59
2022-12-19T13:30:20.521Z,98739.16
2022-12-19T13:33:13.048Z,98741.59
2022-12-19T13:36:43.122Z,98745.47
2022-12-19T13:39:50.026Z,98754.91
2022-12-19T13:41:47.892Z,98745.63
2022-12-19T13:44:22.423Z,98731.56
2022-12-19T13:46:51.598Z,98730.53
2022-12-19T13:49:35.471Z,98728.97
2022-12-19T13:52:06.415Z,98719.81
2022-12-19T13:54:47.634Z,98722.97
2022-12-19T13:57:24.839Z,98723.13
2022-12-19T14:00:00.412Z,98729.78
2022-12-19T14:02:43.774Z,98720.03
2022-12-19T14:06:14.705Z,98721.00
2022-12-19T14:08:22.715Z,98718.56
2022-12-19T14:11:40.707Z,98713.53
2022-12-19T14:14:16.460Z,98712.00
2022-12-19T14:16:49.521Z,98714.84
2022-12-19T14:19:22.766Z,98718.72
2022-12-19T14:22:03.798Z,98725.53
2022-12-19T14:24:42.730Z,98731.03
2022-12-19T14:28:19.923Z,98720.91
2022-12-19T14:30:30.485Z,98724.44
2022-12-19T14:33:46.641Z,98722.34
2022-12-19T14:36:10.526Z,98723.88
2022-12-19T14:39:26.451Z,98729.53
2022-12-19T14:42:02.670Z,98723.53
2022-12-19T14:54:01.799Z,98713.28
2022-12-19T14:54:05.399Z,98722.06
2022-12-19T14:54:21.239Z,98717.75
2022-12-19T14:54:28.915Z,98713.03
2022-12-19T14:59:18.514Z,98707.19
2022-12-19T15:01:54.539Z,98709.63
2022-12-19T15:04:51.448Z,98703.78
2022-12-19T15:07:22.993Z,98707.09
2022-12-19T15:11:03.852Z,98708.59
2022-12-19T15:14:51.840Z,98714.44
2022-12-19T15:16:08.008Z,98715.97
2022-12-19T15:18:42.688Z,98728.25
2022-12-19T15:21:14.840Z,98726.94
2022-12-19T15:23:45.783Z,98716.59
2022-12-19T15:26:19.957Z,98707.97
2022-12-19T15:28:51.715Z,98701.03
2022-12-19T15:31:33.001Z,98693.34
2022-12-19T15:36:53.604Z,98689.13
2022-12-19T15:39:23.682Z,98690.84
2022-12-19T15:41:56.029Z,98710.91
2022-12-19T15:44:32.576Z,98707.53
2022-12-19T15:47:05.806Z,98707.41
2022-12-19T15:49:35.343Z,98699.94
2022-12-19T15:52:04.270Z,98717.38
2022-12-19T15:54:50.214Z,98712.28
2022-12-19T15:57:30.261Z,98718.81
2022-12-19T16:00:03.128Z,98717.75
2022-12-19T16:03:13.373Z,98729.00
2022-12-19T16:05:26.088Z,98716.66
2022-12-19T16:07:54.891Z,98712.13
2022-12-19T16:10:24.405Z,98704.81
2022-12-19T16:12:58.164Z,98702.84
2022-12-19T16:15:30.497Z,98706.00
2022-12-19T16:18:04.053Z,98705.28
2022-12-19T16:20:36.176Z,98713.78
2022-12-19T16:23:05.245Z,98704.81
2022-12-19T16:25:39.904Z,98710.47
2022-12-19T16:28:25.469Z,98709.41
2022-12-19T16:30:59.290Z,98713.22
2022-12-19T16:33:32.039Z,98714.28
2022-12-19T16:36:05.768Z,98703.44
2022-12-19T16:38:35.287Z,98702.53
2022-12-19T16:41:04.261Z,98704.06
2022-12-19T16:43:38.509Z,98704.75
2022-12-19T16:46:09.072Z,98694.50
2022-12-19T16:48:39.274Z,98699.63
2022-12-19T16:51:20.526Z,98692.06
2022-12-19T16:53:50.674Z,98687.78
2022-12-19T16:56:29.305Z,98681.72
2022-12-19T16:59:01.221Z,98683.50
2022-12-19T17:01:30.541Z,98680.00
2022-12-19T17:04:00.741Z,98685.00
2022-12-19T17:06:29.392Z,98691.97
2022-12-19T17:08:58.084Z,98688.63
2022-12-19T17:11:28.683Z,98684.78
2022-12-19T17:14:04.399Z,98689.44
2022-12-19T17:16:33.273Z,98690.72
2022-12-19T17:19:03.841Z,98688.03
2022-12-19T17:21:32.440Z,98674.66
2022-12-19T17:24:01.039Z,98671.88
2022-12-19T17:26:29.881Z,98674.19
2022-12-19T17:28:58.719Z,98665.75
2022-12-19T17:31:38.086Z,98673.19
2022-12-19T17:34:17.291Z,98668.41
2022-12-19T17:36:46.831Z,98665.63
2022-12-19T17:39:21.653Z,98666.09
2022-12-19T17:41:52.010Z,98677.03
2022-12-19T17:44:20.895Z,98673.53
2022-12-19T17:46:50.451Z,98677.28
2022-12-19T17:49:29.305Z,98674.13
2022-12-19T17:52:01.325Z,98671.47
2022-12-19T17:54:30.720Z,98664.63
2022-12-19T17:56:59.845Z,98668.91
2022-12-19T17:59:28.710Z,98674.25
2022-12-19T18:01:57.777Z,98663.78
2022-12-19T18:04:29.929Z,98671.69
2022-12-19T18:06:58.649Z,98670.56
2022-12-19T18:09:28.437Z,98671.59
2022-12-19T18:11:57.101Z,98666.59
2022-12-19T18:14:25.914Z,98653.91
2022-12-19T18:16:54.779Z,98653.22
2022-12-19T18:19:30.563Z,98662.84
2022-12-19T18:21:59.349Z,98669.97
2022-12-19T18:24:28.187Z,98657.16
2022-12-19T18:26:56.990Z,98636.22
2022-12-19T18:29:26.099Z,98627.75
2022-12-19T18:31:56.626Z,98629.25
2022-12-19T18:34:31.532Z,98627.75
2022-12-19T18:37:00.824Z,98624.84
2022-12-19T18:39:31.972Z,98622.31
2022-12-19T18:42:00.979Z,98624.50
2022-12-19T18:44:29.679Z,98624.25
2022-12-19T18:46:58.930Z,98616.34
2022-12-19T18:49:30.069Z,98620.28
2022-12-19T18:52:01.063Z,98628.19
2022-12-19T18:54:30.350Z,98643.56
2022-12-19T18:57:00.124Z,98643.41
2022-12-19T18:59:29.040Z,98650.31
2022-12-19T19:01:58.056Z,98634.94
2022-12-19T19:04:27.076Z,98632.63
2022-12-19T19:06:57.266Z,98634.13
2022-12-19T19:09:26.224Z,98629.59
2022-12-19T19:11:57.972Z,98636.94
2022-12-19T19:14:26.970Z,98648.09
2022-12-19T19:16:55.824Z,98638.34
2022-12-19T19:19:25.027Z,98634.38
2022-12-19T19:21:53.800Z,98625.44
2022-12-19T19:24:24.639Z,98633.34
2022-12-19T19:26:53.535Z,98646.72
2022-12-19T19:29:22.250Z,98643.22
2022-12-19T19:31:53.431Z,98644.53
2022-12-19T19:34:27.191Z,98651.38
2022-12-19T19:37:00.606Z,98646.84
2022-12-19T19:39:35.118Z,98655.66
2022-12-19T19:42:04.084Z,98663.69
2022-12-19T19:44:32.954Z,98663.13
2022-12-19T19:47:02.043Z,98671.69
2022-12-19T19:49:30.911Z,98666.59
2022-12-19T19:52:02.880Z,98669.59
2022-12-19T19:54:35.414Z,98658.91
2022-12-19T19:57:04.258Z,98652.78
2022-12-19T19:59:33.163Z,98655.44
2022-12-19T20:02:02.429Z,98644.16
2022-12-19T20:04:31.446Z,98662.53
2022-12-19T20:07:00.359Z,98668.09
2022-12-19T20:09:29.519Z,98660.44
2022-12-19T20:11:59.777Z,98662.75
2022-12-19T20:14:28.770Z,98661.00
2022-12-19T20:16:57.618Z,98668.44
2022-12-19T20:19:26.681Z,98655.19
2022-12-19T20:21:55.578Z,98659.28
2022-12-19T20:24:24.846Z,98660.16
2022-12-19T20:26:54.733Z,98649.72
2022-12-19T20:29:25.288Z,98640.09
2022-12-19T20:31:54.077Z,98652.16
2022-12-19T20:34:22.954Z,98659.28
2022-12-19T20:36:51.701Z,98656.00
2022-12-19T20:39:22.247Z,98650.19
2022-12-19T20:41:51.832Z,98643.69
2022-12-19T20:44:24.664Z,98647.88
2022-12-19T20:46:55.399Z,98636.84
2022-12-19T20:49:25.450Z,98634.03
2022-12-19T20:51:54.301Z,98634.06
2022-12-19T20:54:23.651Z,98633.81
2022-12-19T20:56:52.369Z,98643.34
2022-12-19T20:59:21.374Z,98638.00
2022-12-19T21:01:50.339Z,98633.72
2022-12-19T21:04:20.662Z,98641.03
2022-12-19T21:06:52.395Z,98640.06
2022-12-19T21:09:21.140Z,98644.72
2022-12-19T21:11:50.022Z,98644.38
2022-12-19T21:14:18.721Z,98637.63
2022-12-19T21:16:47.793Z,98636.34
2022-12-19T21:19:16.912Z,98643.69
2022-12-19T21:21:47.320Z,98642.16
2022-12-19T21:24:16.092Z,98641.69
2022-12-19T21:26:45.182Z,98637.41
2022-12-19T21:29:13.886Z,98625.22
2022-12-19T21:31:42.771Z,98638.13
2022-12-19T21:34:12.423Z,98632.75
2022-12-19T21:36:41.492Z,98642.75
2022-12-19T21:39:12.841Z,98639.84
2022-12-19T21:41:41.556Z,98641.72
2022-12-19T21:44:11.755Z,98644.41
2022-12-19T21:46:40.439Z,98649.28
2022-12-19T21:49:10.488Z,98639.41
2022-12-19T21:51:39.141Z,98638.81
2022-12-19T21:54:10.830Z,98641.03
2022-12-19T21:56:41.677Z,98631.81
2022-12-19T21:59:14.952Z,98636.38
2022-12-19T22:01:44.887Z,98634.06
2022-12-19T22:04:20.891Z,98635.31
2022-12-19T22:06:51.791Z,98624.63
2022-12-19T22:09:23.463Z,98620.22
2022-12-19T22:11:53.699Z,98610.44
2022-12-19T22:14:22.675Z,98612.78
2022-12-19T22:16:51.732Z,98604.41
2022-12-19T22:19:21.143Z,98605.22
2022-12-19T22:21:49.923Z,98623.25
2022-12-19T22:24:20.060Z,98624.31
2022-12-19T22:26:48.720Z,98618.00
2022-12-19T22:29:19.312Z,98619.50
2022-12-19T22:31:49.574Z,98613.03
2022-12-19T22:34:22.598Z,98609.63
2022-12-19T22:36:51.198Z,98598.13
2022-12-19T22:39:22.500Z,98596.38
2022-12-19T22:41:51.570Z,98591.50
2022-12-19T22:44:24.821Z,98586.88
2022-12-19T22:46:53.955Z,98597.09
2022-12-19T22:49:22.697Z,98600.78
2022-12-19T22:51:51.586Z,98599.53
2022-12-19T22:54:20.278Z,98596.28
2022-12-19T22:56:52.004Z,98602.31
2022-12-19T22:59:22.117Z,98605.31
2022-12-19T23:01:50.880Z,98597.16
2022-12-19T23:04:19.750Z,98599.72
2022-12-19T23:06:48.469Z,98607.63
2022-12-19T23:09:19.412Z,98607.75
2022-12-19T23:11:50.784Z,98606.81
2022-12-19T23:14:22.632Z,98599.38
2022-12-19T23:16:51.300Z,98601.22
2022-12-19T23:19:20.227Z,98596.47
2022-12-19T23:21:49.213Z,98596.44
2022-12-19T23:24:17.874Z,98594.59
2022-12-19T23:26:46.807Z,98589.97
2022-12-19T23:29:16.728Z,98602.03
2022-12-19T23:31:47.988Z,98590.88
2022-12-19T23:34:18.211Z,98589.47
2022-12-19T23:39:36.607Z,98581.69
2022-12-19T23:42:05.629Z,98584.38
2022-12-19T23:44:34.506Z,98592.75
2022-12-19T23:47:04.537Z,98586.47
2022-12-19T23:49:34.613Z,98575.53
2022-12-19T23:52:03.480Z,98560.78
2022-12-19T23:54:32.517Z,98549.38
2022-12-19T23:57:01.168Z,98547.06
2022-12-19T23:59:29.694Z,98548.69
